createdAt,value
2023-01-01T00:00:50.303Z,15.8
2023-01-01T00:02:57.917Z,16
2023-01-01T00:05:00.924Z,16
2023-01-01T00:07:03.950Z,15.8
2023-01-01T00:09:06.989Z,15.8
2023-01-01T00:11:10.028Z,15.8
2023-01-01T00:13:13.041Z,15.9
2023-01-01T00:17:22.185Z,15.8
2023-01-01T00:19:25.197Z,15.8
2023-01-01T00:21:28.252Z,15.8
2023-01-01T00:23:31.301Z,15.9
2023-01-01T00:25:34.327Z,15.7
2023-01-01T00:27:37.426Z,15.8
2023-01-01T00:29:40.379Z,15.6
2023-01-01T00:31:46.575Z,15.6
2023-01-01T00:33:49.538Z,15.6
2023-01-01T00:35:52.586Z,15.6
2023-01-01T00:38:16.463Z,15.6
2023-01-01T00:40:19.502Z,15.6
2023-01-01T00:42:22.524Z,15.5
2023-01-01T00:46:31.644Z,15.6
2023-01-01T00:48:34.746Z,15.5
2023-01-01T00:50:37.708Z,15.4
2023-01-01T00:52:40.747Z,15.5
2023-01-01T00:54:43.771Z,15.7
2023-01-01T00:56:46.793Z,15.6
2023-01-01T00:59:00.890Z,15.6
2023-01-01T01:00:56.031Z,15.7
2023-01-01T01:02:59.022Z,15.7
2023-01-01T01:05:01.992Z,15.6
2023-01-01T01:07:05.043Z,15.9
2023-01-01T01:09:08.074Z,15.8
2023-01-01T01:11:11.143Z,15.7
2023-01-01T01:13:17.220Z,15.6
2023-01-01T01:15:20.277Z,15.5
2023-01-01T01:17:23.319Z,15.6
2023-01-01T01:19:26.343Z,15.7
2023-01-01T01:21:29.445Z,15.7
2023-01-01T01:23:32.398Z,15.6
2023-01-01T01:25:35.428Z,15.7
2023-01-01T01:27:41.556Z,15.6
2023-01-01T01:29:44.589Z,15.6
2023-01-01T01:31:47.608Z,15.6
2023-01-01T01:34:53.759Z,15.6
2023-01-01T01:36:56.795Z,15.5
2023-01-01T01:38:59.822Z,15.6
2023-01-01T01:41:05.960Z,15.3
2023-01-01T01:43:09.012Z,15.5
2023-01-01T01:45:12.051Z,15.4
2023-01-01T01:47:15.046Z,15.3
2023-01-01T01:49:18.088Z,15.3
2023-01-01T01:51:21.074Z,15.2
2023-01-01T01:53:24.123Z,15.1
2023-01-01T01:55:30.295Z,15.1
2023-01-01T01:57:33.326Z,15.1
2023-01-01T01:59:36.341Z,15.1
2023-01-01T02:01:39.518Z,15
2023-01-01T02:03:42.429Z,15.1
2023-01-01T02:05:45.479Z,15
2023-01-01T02:07:48.517Z,15
2023-01-01T02:09:54.622Z,15
2023-01-01T02:11:57.707Z,15.1
2023-01-01T02:14:00.724Z,15
2023-01-01T02:20:09.812Z,14.9
2023-01-01T02:22:12.869Z,14.9
2023-01-01T02:24:19.001Z,15
2023-01-01T02:26:22.063Z,14.9
2023-01-01T02:28:25.101Z,15.1
2023-01-01T02:29:28.177Z,15.1
2023-01-01T02:31:31.264Z,15.1
2023-01-01T02:33:34.237Z,15
2023-01-01T02:35:37.269Z,15.1
2023-01-01T02:37:43.404Z,15
2023-01-01T02:39:46.437Z,14.9
2023-01-01T02:41:49.496Z,14.9
2023-01-01T02:43:52.496Z,15
2023-01-01T02:45:55.576Z,15.1
2023-01-01T02:47:58.562Z,15.1
2023-01-01T02:50:01.600Z,15.2
2023-01-01T02:52:07.737Z,15.1
2023-01-01T02:54:10.773Z,15.1
2023-01-01T02:56:13.816Z,15.2
2023-01-01T02:58:16.844Z,15.3
2023-01-01T03:00:19.919Z,15.3
2023-01-01T03:02:23.112Z,15.3
2023-01-01T03:04:25.955Z,15.2
2023-01-01T03:06:32.089Z,15.2
2023-01-01T03:12:41.234Z,15.3
2023-01-01T03:14:44.219Z,15.3
2023-01-01T03:16:47.260Z,15.1
2023-01-01T03:18:50.310Z,15.1
2023-01-01T03:20:56.472Z,15.2
2023-01-01T03:22:59.501Z,15.3
2023-01-01T03:25:02.529Z,15.2
2023-01-01T03:26:05.590Z,15.2
2023-01-01T03:28:08.632Z,15.2
2023-01-01T03:30:11.677Z,15.1
2023-01-01T03:32:14.702Z,15.1
2023-01-01T03:34:20.849Z,15.1
2023-01-01T03:36:23.873Z,15.1
2023-01-01T03:38:26.939Z,15
2023-01-01T03:40:29.929Z,15.3
2023-01-01T03:42:32.957Z,15.1
2023-01-01T03:44:35.995Z,15.1
2023-01-01T03:46:39.118Z,15.3
2023-01-01T03:48:45.176Z,15.2
2023-01-01T03:50:48.196Z,15.3
2023-01-01T03:52:51.213Z,15.3
2023-01-01T03:54:58.764Z,15.1
2023-01-01T03:56:57.289Z,15.2
2023-01-01T03:59:00.399Z,15
2023-01-01T04:01:03.368Z,15.1
2023-01-01T04:05:12.551Z,15.1
2023-01-01T04:07:15.954Z,15.2
2023-01-01T04:09:18.597Z,15.1
2023-01-01T04:11:21.640Z,15.2
2023-01-01T04:13:24.678Z,15.2
2023-01-01T04:15:27.896Z,15.2
2023-01-01T04:17:34.045Z,15.1
2023-01-01T04:19:37.064Z,15.1
2023-01-01T04:26:04.781Z,15.1
2023-01-01T04:30:13.920Z,14.5
2023-01-01T04:32:16.978Z,14.4
2023-01-01T04:34:20.029Z,14.3
2023-01-01T04:38:26.123Z,13.8
2023-01-01T04:40:29.120Z,13.5
2023-01-01T04:42:32.193Z,13.5
2023-01-01T04:44:38.344Z,13.2
2023-01-01T04:50:47.429Z,13.3
2023-01-01T04:52:50.484Z,13.3
2023-01-01T04:54:53.508Z,13.2
2023-01-01T04:56:56.548Z,13.3
2023-01-01T04:59:02.681Z,13.1
2023-01-01T05:01:05.916Z,13.2
2023-01-01T05:03:08.819Z,13.1
2023-01-01T05:05:11.846Z,12.7
2023-01-01T05:07:14.855Z,12.7
2023-01-01T05:09:17.916Z,12.7
2023-01-01T05:11:21.008Z,12.9
2023-01-01T05:13:27.133Z,12.7
2023-01-01T05:15:30.182Z,12.8
2023-01-01T05:17:33.213Z,12.8
2023-01-01T05:18:36.286Z,12.8
2023-01-01T05:20:39.332Z,12.8
2023-01-01T05:22:42.392Z,12.9
2023-01-01T05:24:45.432Z,12.9
2023-01-01T05:26:51.553Z,13.1
2023-01-01T05:28:54.579Z,13
2023-01-01T05:30:57.635Z,13
2023-01-01T05:33:00.702Z,13
2023-01-01T05:35:03.728Z,13.3
2023-01-01T05:37:06.770Z,13.3
2023-01-01T05:39:10.129Z,13.3
2023-01-01T05:41:15.940Z,13.5
2023-01-01T05:43:18.989Z,13.5
2023-01-01T05:45:22.060Z,13.6
2023-01-01T05:47:29.700Z,13.5
2023-01-01T05:49:28.155Z,13.8
2023-01-01T05:53:34.216Z,13.9
2023-01-01T05:55:41.941Z,13.8
2023-01-01T05:57:44.950Z,13.7
2023-01-01T05:59:48.017Z,13.6
2023-01-01T06:01:51.182Z,13.6
2023-01-01T06:03:54.095Z,13.8
2023-01-01T06:05:57.103Z,13.8
2023-01-01T06:08:00.162Z,13.7
2023-01-01T06:10:06.323Z,13.7
2023-01-01T06:12:09.369Z,13.7
2023-01-01T06:14:12.419Z,13.7
2023-01-01T06:15:15.494Z,13.8
2023-01-01T06:17:18.519Z,13.8
2023-01-01T06:19:21.562Z,13.9
2023-01-01T06:21:24.611Z,13.7
2023-01-01T06:23:30.752Z,13.8
2023-01-01T06:25:33.820Z,13.7
2023-01-01T06:27:36.844Z,13.6
2023-01-01T06:29:39.875Z,13.6
2023-01-01T06:31:42.919Z,13.6
2023-01-01T06:33:45.958Z,13.7
2023-01-01T06:35:49.018Z,13.7
2023-01-01T06:37:55.179Z,13.5
2023-01-01T06:42:01.271Z,13.5
2023-01-01T06:44:04.289Z,13.5
2023-01-01T06:46:07.431Z,13.5
2023-01-01T06:48:10.379Z,13.5
2023-01-01T06:50:13.417Z,13.5
2023-01-01T06:52:19.554Z,13.5
2023-01-01T06:54:22.611Z,13.5
2023-01-01T07:02:34.959Z,13.3
2023-01-01T07:04:37.811Z,13.2
2023-01-01T07:06:43.981Z,13.1
2023-01-01T07:08:47.007Z,13.2
2023-01-01T07:10:50.048Z,13.1
2023-01-01T07:11:53.115Z,13.1
2023-01-01T07:13:56.157Z,13
2023-01-01T07:15:59.277Z,13
2023-01-01T07:18:02.244Z,13.1
2023-01-01T07:20:08.405Z,13
2023-01-01T07:22:11.440Z,13
2023-01-01T07:24:14.499Z,13
2023-01-01T07:26:17.522Z,13
2023-01-01T07:28:20.572Z,13
2023-01-01T07:30:23.611Z,13
2023-01-01T07:32:26.669Z,12.9
2023-01-01T07:34:32.812Z,12.9
2023-01-01T07:36:35.856Z,12.9
2023-01-01T07:40:41.953Z,12.8
2023-01-01T07:42:44.965Z,12.7
2023-01-01T07:44:48.002Z,12.7
2023-01-01T07:46:51.091Z,12.7
2023-01-01T07:48:57.205Z,12.7
2023-01-01T07:51:00.282Z,12.5
2023-01-01T07:53:03.381Z,12.4
2023-01-01T08:01:16.064Z,12.4
2023-01-01T08:03:22.165Z,12.4
2023-01-01T08:05:27.194Z,12.3
2023-01-01T08:07:28.168Z,12.4
2023-01-01T08:09:55.982Z,12.3
2023-01-01T08:11:59.005Z,12.3
2023-01-01T08:14:02.155Z,12.2
2023-01-01T08:18:11.553Z,12.3
2023-01-01T08:20:14.703Z,12.2
2023-01-01T08:22:17.832Z,12.2
2023-01-01T08:24:20.983Z,12.2
2023-01-01T08:26:24.144Z,12.1
2023-01-01T08:28:27.293Z,12.2
2023-01-01T08:30:33.558Z,12.1
2023-01-01T08:32:36.677Z,12.2
2023-01-01T08:34:39.832Z,12.2
2023-01-01T08:36:42.990Z,12.1
2023-01-01T08:38:46.130Z,12.2
2023-01-01T08:40:49.275Z,12.2
2023-01-01T08:42:52.391Z,12.1
2023-01-01T08:44:58.762Z,12.1
2023-01-01T08:47:01.975Z,12.2
2023-01-01T08:49:05.080Z,12
2023-01-01T08:51:08.194Z,12
2023-01-01T08:53:11.383Z,12.2
2023-01-01T08:55:14.474Z,12.1
2023-01-01T08:57:17.625Z,12.1
2023-01-01T09:01:27.187Z,12.2
2023-01-01T09:03:30.339Z,12.2
2023-01-01T09:04:33.479Z,12.2
2023-01-01T09:06:36.619Z,12.2
2023-01-01T09:08:40.453Z,12.1
2023-01-01T09:10:43.471Z,12.2
2023-01-01T09:12:49.824Z,12.2
2023-01-01T09:16:56.125Z,12.3
2023-01-01T09:18:59.271Z,12.3
2023-01-01T09:21:02.397Z,12.2
2023-01-01T09:23:05.995Z,12.2
2023-01-01T09:25:08.702Z,12.2
2023-01-01T09:27:15.074Z,12.2
2023-01-01T09:29:18.203Z,12.3
2023-01-01T09:31:21.399Z,12.2
2023-01-01T09:33:24.526Z,12.4
2023-01-01T09:35:27.685Z,12.3
2023-01-01T09:37:30.814Z,12.3
2023-01-01T09:39:33.998Z,12.3
2023-01-01T09:41:40.352Z,12.4
2023-01-01T09:43:43.495Z,12.4
2023-01-01T09:45:46.669Z,12.5
2023-01-01T09:47:49.781Z,12.5
2023-01-01T09:51:58.053Z,12.7
2023-01-01T09:56:05.600Z,12.7
2023-01-01T09:58:08.731Z,12.9
2023-01-01T10:00:11.884Z,12.9
2023-01-01T10:01:15.192Z,13
2023-01-01T10:03:18.093Z,13.1
2023-01-01T10:05:21.138Z,13
2023-01-01T10:07:24.302Z,13.3
2023-01-01T10:09:30.553Z,13.4
2023-01-01T10:13:36.621Z,13.4
2023-01-01T10:15:39.682Z,13.2
2023-01-01T10:19:45.866Z,12.9
2023-01-01T10:21:48.913Z,12.9
2023-01-01T10:23:55.564Z,13
2023-01-01T10:25:58.699Z,13.1
2023-01-01T10:28:01.729Z,13.3
2023-01-01T10:30:05.175Z,13.1
2023-01-01T10:32:07.940Z,13.2
2023-01-01T10:34:10.950Z,13
2023-01-01T10:36:13.998Z,13.1
2023-01-01T10:38:20.204Z,13
2023-01-01T10:40:23.205Z,12.9
2023-01-01T10:42:26.251Z,12.9
2023-01-01T10:44:29.285Z,12.9
2023-01-01T10:46:32.657Z,12.9
2023-01-01T10:48:35.388Z,12.9
2023-01-01T10:50:38.440Z,12.9
2023-01-01T10:52:44.562Z,13
2023-01-01T10:54:47.612Z,12.9
2023-01-01T10:56:50.662Z,13.1
2023-01-01T10:57:53.735Z,13.1
2023-01-01T10:59:56.756Z,13.1
2023-01-01T11:04:02.843Z,13.1
2023-01-01T11:06:08.983Z,13
2023-01-01T11:08:12.034Z,12.9
2023-01-01T11:10:15.087Z,12.8
2023-01-01T11:12:45.922Z,12.9
2023-01-01T11:14:21.146Z,12.9
2023-01-01T11:16:24.292Z,12.9
2023-01-01T11:18:27.257Z,12.9
2023-01-01T11:20:33.438Z,12.8
2023-01-01T11:22:36.461Z,13
2023-01-01T11:24:39.498Z,13
2023-01-01T11:26:42.539Z,13.1
2023-01-01T11:28:45.583Z,13.3
2023-01-01T11:30:48.662Z,13.2
2023-01-01T11:32:55.403Z,13.1
2023-01-01T11:34:57.829Z,13.2
2023-01-01T11:37:00.894Z,13.2
2023-01-01T11:39:03.927Z,13.1
2023-01-01T11:41:06.985Z,13.1
2023-01-01T11:45:13.059Z,13.1
2023-01-01T11:47:16.087Z,13
2023-01-01T11:49:22.239Z,13
2023-01-01T11:55:59.369Z,13.1
2023-01-01T11:58:02.394Z,13.1
2023-01-01T12:00:05.480Z,13.1
2023-01-01T12:02:11.663Z,13.1
2023-01-01T12:04:14.713Z,13
2023-01-01T12:08:20.767Z,13
2023-01-01T12:10:23.813Z,13.1
2023-01-01T12:12:26.840Z,13.2
2023-01-01T12:14:32.674Z,13.2
2023-01-01T12:16:36.045Z,13.2
2023-01-01T12:18:39.083Z,13.1
2023-01-01T12:20:42.129Z,13.3
2023-01-01T12:22:45.165Z,13.3
2023-01-01T12:24:48.242Z,13.3
2023-01-01T12:26:51.255Z,13.4
2023-01-01T12:28:54.304Z,13.4
2023-01-01T12:31:00.512Z,13.4
2023-01-01T12:39:12.621Z,13.6
2023-01-01T12:41:15.671Z,13.6
2023-01-01T12:43:18.713Z,13.7
2023-01-01T12:45:30.716Z,13.6
2023-01-01T12:47:27.928Z,13.6
2023-01-01T12:49:30.985Z,13.6
2023-01-01T12:50:34.052Z,13.7
2023-01-01T12:52:37.105Z,13.6
2023-01-01T12:54:40.167Z,13.6
2023-01-01T12:56:43.213Z,13.6
2023-01-01T12:58:49.334Z,13.5
2023-01-01T13:00:52.393Z,13.5
2023-01-01T13:02:55.599Z,13.6
2023-01-01T13:04:58.454Z,13.5
2023-01-01T13:07:01.530Z,13.4
2023-01-01T13:09:04.566Z,13.5
2023-01-01T13:11:07.576Z,13.5
2023-01-01T13:13:13.715Z,13.6
2023-01-01T13:15:16.774Z,13.6
2023-01-01T13:17:19.845Z,13.6
2023-01-01T13:19:22.861Z,13.6
2023-01-01T13:21:25.883Z,13.6
2023-01-01T13:23:28.943Z,13.5
2023-01-01T13:25:31.971Z,13.5
2023-01-01T13:27:38.144Z,13.4
2023-01-01T13:29:41.171Z,13.3
2023-01-01T13:31:44.254Z,13.4
2023-01-01T13:35:50.319Z,13.4
2023-01-01T13:37:53.350Z,13.3
2023-01-01T13:39:56.396Z,13.4
2023-01-01T13:42:02.541Z,13.2
2023-01-01T13:44:05.625Z,13.1
2023-01-01T13:46:14.001Z,13.3
2023-01-01T13:47:11.780Z,13.2
2023-01-01T13:49:14.801Z,13.3
2023-01-01T13:51:40.010Z,13.3
2023-01-01T13:53:20.858Z,13.2
2023-01-01T13:55:27.024Z,13.2
2023-01-01T13:57:30.085Z,13.2
2023-01-01T13:59:33.134Z,13.1
2023-01-01T14:01:36.441Z,13.2
2023-01-01T14:03:39.204Z,13.2
2023-01-01T14:05:42.240Z,13.2
2023-01-01T14:07:52.092Z,13.2
2023-01-01T14:09:51.463Z,13.1
2023-01-01T14:11:54.491Z,13.1
2023-01-01T14:13:57.564Z,13.2
2023-01-01T14:16:00.650Z,13.1
2023-01-01T14:18:03.639Z,13.2
2023-01-01T14:20:06.684Z,12.9
2023-01-01T14:22:09.726Z,13
2023-01-01T14:24:15.888Z,13
2023-01-01T14:28:22.010Z,12.9
2023-01-01T14:30:25.052Z,13.1
2023-01-01T14:34:31.128Z,12.9
2023-01-01T14:38:40.322Z,12.9
2023-01-01T14:43:49.479Z,12.8
2023-01-01T14:45:52.640Z,12.9
2023-01-01T14:47:55.588Z,12.9
2023-01-01T14:49:58.635Z,12.8
2023-01-01T14:52:04.800Z,12.7
2023-01-01T14:54:07.859Z,12.7
2023-01-01T14:56:10.903Z,12.8
2023-01-01T14:58:13.927Z,12.8
2023-01-01T15:00:16.991Z,12.7
2023-01-01T15:02:20.197Z,12.7
2023-01-01T15:04:23.135Z,12.7
2023-01-01T15:06:29.304Z,12.7
2023-01-01T15:08:32.322Z,12.6
2023-01-01T15:10:35.394Z,12.7
2023-01-01T15:12:38.421Z,12.6
2023-01-01T15:14:41.452Z,12.6
2023-01-01T15:16:44.612Z,12.6
2023-01-01T15:18:47.650Z,12.7
2023-01-01T15:20:54.036Z,12.5
2023-01-01T15:22:57.069Z,12.6
2023-01-01T15:25:00.183Z,12.4
2023-01-01T15:27:03.160Z,12.4
2023-01-01T15:29:06.202Z,12.5
2023-01-01T15:31:09.350Z,12.4
2023-01-01T15:33:12.504Z,12.5
2023-01-01T15:35:18.748Z,12.4
2023-01-01T15:37:21.773Z,12.5
2023-01-01T15:39:24.942Z,12.4
2023-01-01T15:43:51.836Z,12.4
2023-01-01T15:45:55.028Z,12.4
2023-01-01T15:48:01.372Z,12.5
2023-01-01T15:50:04.529Z,12
2023-01-01T15:52:07.614Z,12.4
2023-01-01T15:54:10.768Z,12.4
2023-01-01T15:56:13.908Z,12.4
2023-01-01T15:58:17.054Z,12.4
2023-01-01T16:00:20.229Z,12.4
2023-01-01T16:02:26.562Z,12.5
2023-01-01T16:04:29.634Z,12.5
2023-01-01T16:06:32.532Z,12.6
2023-01-01T16:08:35.595Z,12.6
2023-01-01T16:10:38.600Z,12.5
2023-01-01T16:12:41.619Z,12.5
2023-01-01T16:14:44.655Z,12.6
2023-01-01T16:16:50.929Z,12.6
2023-01-01T16:18:53.872Z,12.5
2023-01-01T16:20:56.914Z,12.5
2023-01-01T16:22:59.948Z,12.5
2023-01-01T16:25:03.000Z,12.5
2023-01-01T16:27:06.065Z,12.5
2023-01-01T16:29:09.095Z,12.5
2023-01-01T16:31:15.241Z,12.6
2023-01-01T16:33:18.253Z,12.5
2023-01-01T16:35:21.318Z,12.6
2023-01-01T16:40:35.782Z,12.5
2023-01-01T16:48:45.768Z,12.4
2023-01-01T16:50:48.784Z,12.6
2023-01-01T16:52:51.838Z,12.5
2023-01-01T16:54:54.878Z,12.4
2023-01-01T17:05:13.227Z,12.4
2023-01-01T17:07:16.246Z,12.5
2023-01-01T17:09:19.310Z,12.3
2023-01-01T17:11:22.362Z,12.4
2023-01-01T17:13:28.487Z,12.3
2023-01-01T17:15:31.598Z,12.4
2023-01-01T17:17:34.576Z,12.3
2023-01-01T17:19:37.619Z,12.3
2023-01-01T17:21:40.681Z,12.3
2023-01-01T17:23:43.718Z,12.3
2023-01-01T17:25:46.865Z,12.4
2023-01-01T17:27:53.127Z,12.4
2023-01-01T17:29:56.155Z,12.4
2023-01-01T17:31:59.326Z,12.3
2023-01-01T17:39:11.635Z,12.5
2023-01-01T17:43:20.810Z,12.4
2023-01-01T17:45:25.432Z,12.5
2023-01-01T17:47:32.608Z,12.6
2023-01-01T17:49:31.475Z,12.6
2023-01-01T17:51:34.520Z,12.5
2023-01-01T17:53:37.596Z,12.5
2023-01-01T17:55:43.833Z,12.4
2023-01-01T17:57:46.884Z,12.5
2023-01-01T17:59:49.924Z,12.4
2023-01-01T18:01:53.094Z,12.3
2023-01-01T18:03:56.014Z,12.2
2023-01-01T18:05:59.066Z,12.2
2023-01-01T18:08:02.095Z,12.1
2023-01-01T18:10:08.244Z,12
2023-01-01T18:12:11.277Z,12.1
2023-01-01T18:14:18.354Z,12
2023-01-01T18:16:17.505Z,11.9
2023-01-01T18:18:20.596Z,11.9
2023-01-01T18:20:23.762Z,11.8
2023-01-01T18:22:26.872Z,11.9
2023-01-01T18:24:33.244Z,11.7
2023-01-01T18:26:36.407Z,11.7
2023-01-01T18:28:39.534Z,11.7
2023-01-01T18:29:42.726Z,11.7
2023-01-01T18:31:45.923Z,11.5
2023-01-01T18:33:49.040Z,11.5
2023-01-01T18:35:52.185Z,11.5
2023-01-01T18:37:58.524Z,11.5
2023-01-01T18:40:01.669Z,11.5
2023-01-01T18:42:04.791Z,11.5
2023-01-01T18:46:11.189Z,11.3
2023-01-01T18:48:14.221Z,11.3
2023-01-01T18:50:17.400Z,11.3
2023-01-01T18:52:23.760Z,11.2
2023-01-01T18:54:26.909Z,11.2
2023-01-01T18:58:33.161Z,11.2
2023-01-01T19:02:39.619Z,11.1
2023-01-01T19:04:42.588Z,11.1
2023-01-01T19:06:48.949Z,11
2023-01-01T19:08:52.100Z,11
2023-01-01T19:10:55.232Z,11
2023-01-01T19:12:58.422Z,10.9
2023-01-01T19:15:01.511Z,10.9
2023-01-01T19:17:04.636Z,10.9
2023-01-01T19:19:07.790Z,11
2023-01-01T19:21:14.152Z,10.8
2023-01-01T19:23:17.293Z,11
2023-01-01T19:25:20.445Z,10.8
2023-01-01T19:27:53.477Z,10.9
2023-01-01T19:29:53.350Z,10.8
2023-01-01T19:31:56.607Z,10.9
2023-01-01T19:34:02.841Z,10.9
2023-01-01T19:36:05.972Z,10.9
2023-01-01T19:38:09.127Z,10.9
2023-01-01T19:40:12.237Z,10.8
2023-01-01T19:42:15.362Z,10.8
2023-01-01T19:44:22.969Z,10.8
2023-01-01T19:46:21.681Z,10.9
2023-01-01T19:48:28.008Z,10.8
2023-01-01T19:50:31.165Z,10.9
2023-01-01T19:52:34.291Z,10.8
2023-01-01T19:54:37.419Z,10.9
2023-01-01T19:56:40.545Z,10.9
2023-01-01T19:58:43.669Z,10.8
2023-01-01T20:00:46.932Z,10.8
2023-01-01T20:02:53.317Z,10.9
2023-01-01T20:04:56.272Z,10.8
2023-01-01T20:09:02.541Z,10.8
2023-01-01T20:11:05.671Z,10.8
2023-01-01T20:13:08.844Z,10.9
2023-01-01T20:15:11.963Z,11
2023-01-01T20:17:18.277Z,10.9
2023-01-01T20:19:21.427Z,10.9
2023-01-01T20:21:26.635Z,10.8
2023-01-01T20:24:30.853Z,10.8
2023-01-01T20:26:33.992Z,10.9
2023-01-01T20:28:37.139Z,10.8
2023-01-01T20:30:43.473Z,10.8
2023-01-01T20:32:46.611Z,10.9
2023-01-01T20:34:49.747Z,10.9
2023-01-01T20:36:52.889Z,11
2023-01-01T20:38:56.029Z,10.8
2023-01-01T20:43:02.308Z,10.9
2023-01-01T20:45:08.619Z,10.9
2023-01-01T20:47:11.785Z,10.8
2023-01-01T20:53:21.186Z,10.8
2023-01-01T20:55:24.407Z,10.8
2023-01-01T20:59:36.348Z,10.8
2023-01-01T21:01:37.126Z,10.8
2023-01-01T21:03:40.146Z,10.7
2023-01-01T21:05:43.314Z,10.8
2023-01-01T21:07:46.439Z,10.7
2023-01-01T21:13:58.994Z,10.9
2023-01-01T21:16:02.165Z,10.9
2023-01-01T21:18:05.313Z,10.9
2023-01-01T21:19:08.492Z,11
2023-01-01T21:21:11.605Z,10.9
2023-01-01T21:23:14.737Z,10.9
2023-01-01T21:25:49.674Z,10.9
2023-01-01T21:27:24.304Z,10.9
2023-01-01T21:29:27.337Z,11
2023-01-01T21:31:30.540Z,11
2023-01-01T21:45:55.650Z,10.9
2023-01-01T21:47:58.751Z,11
2023-01-01T21:50:01.923Z,11
2023-01-01T21:52:05.065Z,11
2023-01-01T21:54:08.186Z,11
2023-01-01T21:58:21.208Z,11
2023-01-01T22:04:27.063Z,10.9
2023-01-01T22:06:30.200Z,11
2023-01-01T22:08:33.347Z,10.9
2023-01-01T22:10:39.679Z,11
2023-01-01T22:12:42.837Z,10.9
2023-01-01T22:14:46.859Z,10.9
2023-01-01T22:15:50.034Z,10.9
2023-01-01T22:17:53.157Z,10.9
2023-01-01T22:19:56.281Z,10.9
2023-01-01T22:21:59.460Z,10.8
2023-01-01T22:24:05.763Z,10.8
2023-01-01T22:26:08.950Z,10.8
2023-01-01T22:28:12.026Z,10.8
2023-01-01T22:30:15.128Z,10.9
2023-01-01T22:32:18.272Z,10.9
2023-01-01T22:34:21.404Z,10.9
2023-01-01T22:38:30.895Z,10.8
2023-01-01T22:40:34.030Z,10.8
2023-01-01T22:42:37.176Z,10.9
2023-01-01T22:44:40.282Z,10.8
2023-01-01T22:46:43.472Z,11
2023-01-01T22:48:48.057Z,10.9
2023-01-01T22:50:49.710Z,10.8
2023-01-01T22:52:56.068Z,10.9
2023-01-01T22:54:59.202Z,10.9
2023-01-01T22:57:02.317Z,10.9
2023-01-01T22:59:05.433Z,11
2023-01-01T23:01:08.685Z,10.9
2023-01-01T23:03:11.928Z,11
2023-01-01T23:05:14.848Z,11
2023-01-01T23:07:21.185Z,11.1
2023-01-01T23:09:24.323Z,11
2023-01-01T23:11:27.480Z,11.1
2023-01-01T23:13:51.155Z,11.1
2023-01-01T23:15:56.016Z,11
2023-01-01T23:17:57.405Z,11
2023-01-01T23:20:03.788Z,11
2023-01-01T23:22:06.909Z,11
2023-01-01T23:24:10.036Z,11
2023-01-01T23:26:13.166Z,11.1
2023-01-01T23:28:16.327Z,11.1
2023-01-01T23:30:19.488Z,11.1
2023-01-01T23:32:22.619Z,11.1
2023-01-01T23:34:28.912Z,11.3
2023-01-01T23:36:32.054Z,11.2
2023-01-01T23:38:35.213Z,11.3
2023-01-01T23:40:39.899Z,11.3
2023-01-01T23:42:42.976Z,11.3
2023-01-01T23:44:46.125Z,11.4
2023-01-01T23:46:49.304Z,11.4
2023-01-01T23:48:55.582Z,11.4
2023-01-01T23:50:58.720Z,11.4
2023-01-01T23:53:01.836Z,11.4
2023-01-01T23:55:04.970Z,11.4
2023-01-01T23:57:08.113Z,11.4
2023-01-01T23:59:11.260Z,11.3
